Time;durP1;ratioP1;P1;durP2;ratioP2;P2;SDS_P1;SDS_P2;PMS_P1;PMS_P2;Temp;Humidity;BMP_temperature;BMP_pressure;BME280_temperature;BME280_humidity;BME280_pressure;Samples;Min_cycle;Max_cycle;Signal;HPM_P1;HPM_P2
2022/12/25 00:02:01;;;;;;;14.33;13.73;;;24.70;64.70;;;;;;5012673;28;20553;-58
2022/12/25 00:04:28;;;;;;;15.33;14.80;;;24.70;65.00;;;;;;5013070;28;20460;-58
2022/12/25 00:06:55;;;;;;;14.90;14.50;;;24.70;64.80;;;;;;5012532;28;20524;-56
2022/12/25 00:09:22;;;;;;;14.67;14.17;;;24.70;64.80;;;;;;5012687;28;20944;-61
2022/12/25 00:11:49;;;;;;;14.10;13.70;;;24.70;64.80;;;;;;5012165;28;20556;-61
2022/12/25 00:14:16;;;;;;;14.90;14.33;;;24.70;64.70;;;;;;5012555;28;20450;-60
2022/12/25 00:16:43;;;;;;;14.60;14.10;;;24.70;64.30;;;;;;5012707;28;20482;-61
2022/12/25 00:19:11;;;;;;;14.57;13.97;;;24.70;63.90;;;;;;5012208;28;20446;-53
2022/12/25 00:21:38;;;;;;;14.50;14.00;;;24.80;63.80;;;;;;5012058;28;20921;-55
2022/12/25 00:24:05;;;;;;;15.33;14.80;;;24.70;63.50;;;;;;5011351;28;20536;-59
2022/12/25 00:26:32;;;;;;;14.40;13.90;;;24.70;63.60;;;;;;5012323;28;20520;-58
2022/12/25 00:28:59;;;;;;;14.63;14.13;;;24.70;64.90;;;;;;5011377;28;20482;-57
2022/12/25 00:31:26;;;;;;;13.73;13.10;;;24.70;64.20;;;;;;5011982;28;21012;-57
2022/12/25 00:33:53;;;;;;;14.60;14.00;;;24.70;63.40;;;;;;5012526;28;21016;-61
2022/12/25 00:36:23;;;;;;;14.23;13.83;;;24.70;63.10;;;;;;5011815;28;20482;-60
2022/12/25 00:38:50;;;;;;;14.33;13.83;;;24.70;63.30;;;;;;5011967;28;20461;-58
2022/12/25 00:42:17;;;;;;;14.80;14.20;;;24.70;63.30;;;;;;5011363;28;20541;-60
2022/12/25 00:44:08;;;;;;;15.70;15.20;;;24.70;63.60;;;;;;5011811;28;20446;-58
2022/12/25 00:46:35;;;;;;;7.00;6.80;;;24.70;63.70;;;;;;5010593;28;20561;-61
2022/12/25 00:49:02;;;;;;;9.43;9.03;;;24.70;63.40;;;;;;5011176;28;20207;-62
2022/12/25 00:51:31;;;;;;;10.03;9.63;;;24.50;60.50;;;;;;5013958;28;20816;-60
2022/12/25 00:53:58;;;;;;;9.37;8.97;;;24.30;60.20;;;;;;5015201;28;21011;-60
2022/12/25 00:56:25;;;;;;;8.90;8.60;;;24.20;60.60;;;;;;5014637;28;20481;-61
2022/12/25 00:58:53;;;;;;;8.00;7.70;;;24.00;61.10;;;;;;5014946;28;20525;-60
2022/12/25 01:01:20;;;;;;;9.33;8.83;;;23.90;61.50;;;;;;5014873;28;20528;-61
2022/12/25 01:03:47;;;;;;;8.73;8.43;;;23.80;61.80;;;;;;5014875;28;20448;-61
2022/12/25 01:06:14;;;;;;;9.33;9.03;;;23.70;62.30;;;;;;5014773;28;20479;-61
2022/12/25 01:10:21;;;;;;;8.50;8.20;;;23.60;62.50;;;;;;5014778;28;20507;-60
2022/12/25 01:11:30;;;;;;;8.10;7.80;;;23.50;62.80;;;;;;5014483;28;20827;-61
2022/12/25 01:13:57;;;;;;;8.63;8.33;;;23.40;63.20;;;;;;5014458;28;20450;-61
2022/12/25 01:16:24;;;;;;;8.77;8.47;;;23.40;63.60;;;;;;5014541;28;20489;-61
2022/12/25 01:18:51;;;;;;;9.27;8.97;;;23.30;63.80;;;;;;5014567;28;20523;-60
2022/12/25 01:21:20;;;;;;;8.83;8.53;;;23.20;64.00;;;;;;5009405;28;20451;-62
2022/12/25 01:23:50;;;;;;;8.77;8.33;;;23.20;64.30;;;;;;4994978;28;20942;-62
2022/12/25 01:26:18;;;;;;;9.93;9.53;;;23.10;64.50;;;;;;4994919;28;20949;-62
2022/12/25 01:28:45;;;;;;;9.07;8.77;;;23.00;64.60;;;;;;4995876;28;20533;-60
2022/12/25 01:31:14;;;;;;;8.03;7.73;;;23.00;64.90;;;;;;5014237;28;20807;-61
2022/12/25 01:33:42;;;;;;;9.30;8.90;;;23.00;65.00;;;;;;5014359;28;20457;-62
2022/12/25 01:36:14;;;;;;;9.00;8.60;;;22.90;65.10;;;;;;5014170;28;20486;-61
2022/12/25 01:38:41;;;;;;;8.57;8.30;;;22.90;65.40;;;;;;5014410;28;20469;-62
2022/12/25 01:41:10;;;;;;;8.93;8.63;;;22.80;65.40;;;;;;5014113;28;20460;-61
2022/12/25 01:43:57;;;;;;;8.60;8.30;;;22.80;65.60;;;;;;5014326;28;20454;-61
2022/12/25 01:46:25;;;;;;;8.70;8.40;;;22.80;65.70;;;;;;5013924;28;20977;-61
2022/12/25 01:48:53;;;;;;;8.40;7.87;;;22.80;66.20;;;;;;5013950;28;20941;-61
2022/12/25 01:51:26;;;;;;;8.10;7.70;;;22.70;65.90;;;;;;5013831;28;20461;-61
2022/12/25 01:53:54;;;;;;;8.73;8.30;;;22.70;66.10;;;;;;5014635;28;20968;-61
2022/12/25 01:56:23;;;;;;;8.20;7.80;;;22.70;66.30;;;;;;5001368;28;20482;-61
2022/12/25 01:58:50;;;;;;;7.97;7.67;;;22.60;66.30;;;;;;4994197;28;20874;-63
2022/12/25 02:01:17;;;;;;;7.97;7.77;;;22.60;66.40;;;;;;4996031;28;20449;-63
2022/12/25 02:03:44;;;;;;;8.33;7.93;;;22.60;66.50;;;;;;5013859;28;20865;-63
2022/12/25 02:06:11;;;;;;;7.83;7.50;;;22.60;66.60;;;;;;5013797;28;20441;-63
2022/12/25 02:08:40;;;;;;;7.70;7.50;;;22.60;66.70;;;;;;5013876;28;20504;-63
2022/12/25 02:11:55;;;;;;;8.73;8.43;;;22.50;66.80;;;;;;5013313;28;20454;-63
2022/12/25 02:13:56;;;;;;;8.47;8.17;;;22.50;66.90;;;;;;5013516;28;20500;-63
2022/12/25 02:16:31;;;;;;;8.03;7.73;;;22.50;67.10;;;;;;5013510;28;20556;-64
2022/12/25 02:19:06;;;;;;;8.37;7.97;;;22.50;67.20;;;;;;5013193;28;20449;-63
2022/12/25 02:21:50;;;;;;;8.20;7.87;;;22.40;67.20;;;;;;5012823;28;20471;-63
2022/12/25 02:24:32;;;;;;;8.10;7.80;;;22.50;67.30;;;;;;5013430;28;20459;-63
2022/12/25 02:27:07;;;;;;;8.23;7.93;;;22.40;67.40;;;;;;5013560;28;20814;-63
2022/12/25 02:29:44;;;;;;;7.33;7.13;;;22.40;67.50;;;;;;5013179;28;20448;-62
2022/12/25 02:32:19;;;;;;;8.10;7.87;;;22.40;67.60;;;;;;5013229;28;20480;-62
2022/12/25 02:34:50;;;;;;;8.50;8.10;;;22.40;67.70;;;;;;5013015;28;20445;-62
2022/12/25 02:37:23;;;;;;;8.43;8.13;;;22.30;67.70;;;;;;5013189;28;21088;-63
2022/12/25 02:39:57;;;;;;;8.40;8.10;;;22.30;68.00;;;;;;5012913;28;20456;-63
2022/12/25 03:07:48;;;;;;;7.77;7.57;;;22.20;68.80;;;;;;5024603;28;20452;-63
2022/12/25 03:13:06;;;;;;;7.90;7.70;;;22.20;69.00;;;;;;5024741;28;20433;-63
2022/12/25 03:18:23;;;;;;;7.63;7.33;;;22.20;69.00;;;;;;5021837;28;20505;-62
2022/12/25 03:29:06;;;;;;;7.20;7.00;;;22.10;69.20;;;;;;5012232;28;20449;-60
2022/12/25 03:31:39;;;;;;;7.50;7.30;;;22.10;69.30;;;;;;5012150;28;20490;-63
2022/12/25 04:38:35;;;;;;;7.70;7.40;;;22.20;69.70;;;;;;5015639;28;20440;-62
2022/12/25 04:41:04;;;;;;;7.40;7.20;;;22.20;70.20;;;;;;5015201;28;20446;-62
2022/12/25 04:43:31;;;;;;;7.50;7.20;;;22.10;70.70;;;;;;5015295;28;20491;-62
2022/12/25 04:46:00;;;;;;;6.80;6.70;;;22.10;70.80;;;;;;5014789;28;20448;-62
2022/12/25 04:48:28;;;;;;;7.20;7.00;;;22.10;71.10;;;;;;5015238;28;20540;-62
2022/12/25 04:50:55;;;;;;;7.27;7.07;;;22.10;71.20;;;;;;5014876;28;20442;-63
2022/12/25 04:53:22;;;;;;;7.50;7.20;;;22.10;71.10;;;;;;5015168;28;20496;-62
2022/12/25 04:55:49;;;;;;;7.50;7.30;;;22.10;71.10;;;;;;5006648;28;20478;-62
2022/12/25 04:58:17;;;;;;;7.50;7.30;;;22.10;71.20;;;;;;4995453;28;20450;-62
2022/12/25 05:00:45;;;;;;;7.10;7.00;;;22.10;71.20;;;;;;4995309;28;20566;-63
2022/12/25 05:03:12;;;;;;;7.67;7.37;;;22.10;71.20;;;;;;5011486;28;20527;-63
2022/12/25 05:05:40;;;;;;;7.37;7.17;;;22.10;71.30;;;;;;5015022;28;20445;-63
2022/12/25 05:08:07;;;;;;;7.03;6.83;;;22.20;71.40;;;;;;5014992;28;20845;-63
2022/12/25 05:10:34;;;;;;;7.03;6.83;;;22.10;71.30;;;;;;5014653;28;20469;-62
2022/12/25 05:13:01;;;;;;;7.00;6.80;;;22.10;71.20;;;;;;5014825;28;20931;-63
2022/12/25 05:15:29;;;;;;;7.50;7.30;;;22.20;71.30;;;;;;5014708;28;20445;-62
2022/12/25 05:17:56;;;;;;;7.10;6.90;;;22.20;71.30;;;;;;5014555;28;20524;-63
2022/12/25 05:20:23;;;;;;;7.00;6.80;;;22.20;71.30;;;;;;5014525;28;20533;-63
2022/12/25 05:22:50;;;;;;;7.13;6.93;;;22.20;71.30;;;;;;5014493;28;20545;-62
2022/12/25 05:25:17;;;;;;;6.80;6.60;;;22.10;71.20;;;;;;5014660;28;20470;-62
2022/12/25 05:27:44;;;;;;;7.77;7.57;;;22.10;71.20;;;;;;5014480;28;20442;-63
2022/12/25 05:30:11;;;;;;;6.73;6.53;;;22.10;71.20;;;;;;5014278;28;20529;-62
2022/12/25 05:32:39;;;;;;;7.57;7.27;;;22.10;71.40;;;;;;5014407;28;20468;-62
2022/12/25 05:35:07;;;;;;;7.40;7.07;;;22.10;71.30;;;;;;5014232;28;20446;-62
2022/12/25 05:37:35;;;;;;;7.30;7.10;;;22.20;71.40;;;;;;5013676;28;20486;-62
2022/12/25 05:40:02;;;;;;;6.80;6.60;;;22.20;71.40;;;;;;5014273;28;20482;-62
2022/12/25 05:42:29;;;;;;;6.80;6.60;;;22.20;71.50;;;;;;5014174;28;20509;-62
2022/12/25 05:44:56;;;;;;;6.90;6.70;;;22.20;71.50;;;;;;5014304;28;20949;-61
2022/12/25 05:47:23;;;;;;;7.17;6.97;;;22.20;71.50;;;;;;5014191;28;20446;-60
2022/12/25 05:49:51;;;;;;;7.37;7.07;;;22.20;71.50;;;;;;5013858;28;20536;-63
2022/12/25 05:52:18;;;;;;;7.00;6.80;;;22.20;71.50;;;;;;5013546;28;20565;-62
2022/12/25 05:54:45;;;;;;;6.60;6.50;;;22.20;71.70;;;;;;5014000;28;20442;-60
2022/12/25 05:57:11;;;;;;;7.00;6.83;;;22.20;71.70;;;;;;4994537;28;20569;-60
2022/12/25 05:59:38;;;;;;;7.43;7.23;;;22.20;71.80;;;;;;4994307;28;20879;-63
2022/12/25 06:02:05;;;;;;;7.67;7.47;;;22.20;71.80;;;;;;4994273;28;20505;-62
2022/12/25 06:04:32;;;;;;;7.63;7.50;;;22.10;71.70;;;;;;4994253;28;20913;-63
2022/12/25 06:07:00;;;;;;;7.80;7.60;;;22.20;71.70;;;;;;4998994;28;20442;-61
2022/12/25 06:09:27;;;;;;;7.60;7.30;;;22.10;71.70;;;;;;5013582;28;20541;-62
2022/12/25 06:11:54;;;;;;;8.03;7.83;;;22.10;72.40;;;;;;5013505;28;21039;-62
2022/12/25 06:14:20;;;;;;;7.53;7.33;;;22.20;71.80;;;;;;5013728;28;20457;-62
2022/12/25 06:16:51;;;;;;;7.40;7.20;;;22.20;71.80;;;;;;5013266;28;20485;-61
2022/12/25 06:19:18;;;;;;;7.80;7.60;;;22.20;71.80;;;;;;5013523;28;20446;-62
2022/12/25 06:21:44;;;;;;;7.80;7.60;;;22.20;71.90;;;;;;5013385;28;20554;-60
2022/12/25 06:24:13;;;;;;;7.87;7.57;;;22.20;71.80;;;;;;5013129;28;20532;-61
2022/12/25 06:26:40;;;;;;;7.93;7.73;;;22.20;71.90;;;;;;5013311;28;20538;-62
2022/12/25 06:29:07;;;;;;;8.10;7.80;;;22.20;71.90;;;;;;5013299;28;20446;-61
2022/12/25 06:31:33;;;;;;;7.23;7.03;;;22.20;71.90;;;;;;5012967;28;20524;-61
2022/12/25 06:34:00;;;;;;;7.50;7.20;;;22.20;71.90;;;;;;5013240;28;20541;-61
2022/12/25 06:36:28;;;;;;;6.80;6.60;;;22.20;71.90;;;;;;5013254;28;20572;-61
2022/12/25 06:38:55;;;;;;;7.40;7.20;;;22.20;72.00;;;;;;5012675;28;20449;-62
2022/12/25 06:41:25;;;;;;;7.00;6.80;;;22.20;72.00;;;;;;5012990;28;20454;-62
2022/12/25 06:43:54;;;;;;;6.80;6.70;;;22.20;71.90;;;;;;5013084;28;20793;-61
2022/12/25 06:46:22;;;;;;;7.40;7.20;;;22.20;72.00;;;;;;5013110;28;20448;-61
2022/12/25 06:48:49;;;;;;;6.80;6.70;;;22.10;71.90;;;;;;5011857;28;20446;-61
2022/12/25 06:51:17;;;;;;;6.83;6.43;;;22.10;72.00;;;;;;5012788;28;20512;-61
2022/12/25 06:53:43;;;;;;;6.80;6.70;;;22.20;72.10;;;;;;5012934;28;20452;-61
2022/12/25 06:56:14;;;;;;;7.43;7.20;;;22.20;72.00;;;;;;5012524;28;20448;-60
2022/12/25 06:58:43;;;;;;;6.80;6.60;;;22.20;72.00;;;;;;5012969;28;20833;-62
2022/12/25 07:01:16;;;;;;;6.80;6.70;;;22.20;72.00;;;;;;5012667;28;20960;-61
2022/12/25 07:03:45;;;;;;;6.70;6.50;;;22.20;72.00;;;;;;5012806;28;20525;-61
2022/12/25 07:06:12;;;;;;;6.73;6.53;;;22.10;71.80;;;;;;5012822;28;20444;-61
2022/12/25 07:08:39;;;;;;;6.40;6.30;;;22.20;72.00;;;;;;5012721;28;20558;-61
2022/12/25 07:11:06;;;;;;;6.40;6.30;;;22.20;72.00;;;;;;5012629;28;20548;-61
2022/12/25 07:13:33;;;;;;;7.27;7.07;;;22.20;72.10;;;;;;5011844;28;20492;-61
2022/12/25 07:16:03;;;;;;;6.60;6.50;;;22.20;72.00;;;;;;5012570;28;20452;-62
2022/12/25 07:18:31;;;;;;;6.77;6.60;;;22.20;72.00;;;;;;5012429;28;20573;-61
2022/12/25 07:21:11;;;;;;;7.40;7.10;;;22.20;72.00;;;;;;5150535;27;20509;-62
2022/12/25 07:23:38;;;;;;;6.37;6.27;;;22.10;71.90;;;;;;5130044;27;20531;-62
2022/12/25 07:26:05;;;;;;;6.90;6.80;;;22.10;72.00;;;;;;5130024;27;21025;-62
2022/12/25 07:28:32;;;;;;;6.60;6.50;;;22.10;72.00;;;;;;5129458;27;20527;-62
2022/12/25 07:31:03;;;;;;;6.80;6.60;;;22.20;72.10;;;;;;5129629;27;20443;-62
2022/12/25 07:33:30;;;;;;;7.27;7.07;;;22.20;72.00;;;;;;5130269;28;21025;-62
2022/12/25 07:35:57;;;;;;;7.03;6.93;;;22.20;71.90;;;;;;5129795;27;20448;-61
2022/12/25 07:38:26;;;;;;;6.70;6.60;;;22.20;71.80;;;;;;5129755;27;20532;-62
2022/12/25 07:40:53;;;;;;;7.53;7.33;;;22.20;71.80;;;;;;5129362;27;20571;-62
2022/12/25 07:43:20;;;;;;;7.00;6.90;;;22.20;71.80;;;;;;5129621;27;20469;-62
2022/12/25 07:45:47;;;;;;;7.30;7.10;;;22.20;71.80;;;;;;5129019;28;20437;-61
2022/12/25 07:48:14;;;;;;;7.07;6.87;;;22.20;71.80;;;;;;5129199;27;20539;-60
2022/12/25 07:50:41;;;;;;;7.07;6.77;;;22.20;71.80;;;;;;5129478;27;20887;-60
2022/12/25 07:53:07;;;;;;;7.13;7.00;;;22.20;71.80;;;;;;5129334;27;20464;-62
2022/12/25 07:55:35;;;;;;;8.07;7.77;;;22.20;71.80;;;;;;5135767;27;21021;-62
2022/12/25 07:58:02;;;;;;;7.27;7.10;;;22.20;71.70;;;;;;5150061;27;20527;-62
2022/12/25 08:00:31;;;;;;;7.57;7.37;;;22.10;71.60;;;;;;5147960;27;20840;-62
2022/12/25 08:02:58;;;;;;;7.33;7.13;;;22.20;71.80;;;;;;5126490;28;20908;-62
2022/12/25 08:05:25;;;;;;;6.53;6.43;;;22.20;71.80;;;;;;5129306;28;20445;-62
2022/12/25 08:07:53;;;;;;;6.80;6.70;;;22.20;71.80;;;;;;5128752;27;20445;-61
2022/12/25 08:10:23;;;;;;;7.50;7.30;;;22.20;71.70;;;;;;5128805;27;20432;-61
2022/12/25 08:12:51;;;;;;;7.57;7.33;;;22.20;71.70;;;;;;5128965;27;20502;-57
2022/12/25 08:15:18;;;;;;;7.13;6.93;;;22.20;71.60;;;;;;5129049;28;20440;-62
2022/12/25 08:17:45;;;;;;;7.70;7.40;;;22.20;71.60;;;;;;5128658;28;20870;-61
2022/12/25 08:20:12;;;;;;;7.30;7.10;;;22.20;71.70;;;;;;5128738;27;20490;-62
2022/12/25 08:22:39;;;;;;;7.10;6.90;;;22.20;71.70;;;;;;5128740;27;20461;-62
2022/12/25 08:25:06;;;;;;;7.40;7.20;;;22.20;71.70;;;;;;5128660;28;20952;-61
2022/12/25 08:27:34;;;;;;;7.47;7.37;;;22.20;71.60;;;;;;5128776;27;20447;-62
2022/12/25 08:30:03;;;;;;;7.67;7.47;;;22.20;71.60;;;;;;5128064;27;20439;-59
2022/12/25 08:32:32;;;;;;;7.67;7.47;;;22.20;71.60;;;;;;5114627;28;20457;-62
2022/12/25 08:34:59;;;;;;;7.37;7.20;;;22.20;71.60;;;;;;5115042;28;20464;-62
2022/12/25 08:37:25;;;;;;;7.60;7.40;;;22.20;71.60;;;;;;5114920;28;20812;-62
2022/12/25 08:39:52;;;;;;;7.43;7.23;;;22.10;71.60;;;;;;5114581;28;20477;-62
2022/12/25 08:42:19;;;;;;;7.23;7.03;;;22.20;71.70;;;;;;5114756;28;20897;-62
2022/12/25 08:44:46;;;;;;;7.77;7.37;;;22.20;71.80;;;;;;5114604;28;20532;-62
2022/12/25 08:47:14;;;;;;;7.60;7.40;;;22.20;71.80;;;;;;5114776;28;20869;-62
2022/12/25 08:49:41;;;;;;;7.70;7.50;;;22.20;71.90;;;;;;5114516;28;20467;-61
2022/12/25 08:52:08;;;;;;;7.83;7.63;;;22.20;71.80;;;;;;5114500;28;20553;-62
2022/12/25 08:54:35;;;;;;;7.50;7.30;;;22.20;71.70;;;;;;5114644;28;20445;-62
2022/12/25 08:57:02;;;;;;;7.83;7.63;;;22.20;71.70;;;;;;5133450;27;20441;-63
2022/12/25 08:59:29;;;;;;;7.60;7.40;;;22.20;71.70;;;;;;5127787;27;20469;-62
2022/12/25 09:01:56;;;;;;;7.40;7.20;;;22.20;71.70;;;;;;5114473;28;20548;-62
2022/12/25 09:04:24;;;;;;;7.50;7.30;;;22.20;71.70;;;;;;5114474;27;20532;-62
2022/12/25 09:06:51;;;;;;;7.70;7.50;;;22.20;71.70;;;;;;5114348;28;20533;-62
2022/12/25 09:09:18;;;;;;;7.50;7.40;;;22.20;71.70;;;;;;5114158;28;20456;-59
2022/12/25 09:11:45;;;;;;;7.60;7.40;;;22.20;71.70;;;;;;5114126;28;20525;-61
2022/12/25 09:14:13;;;;;;;7.63;7.33;;;22.10;71.70;;;;;;5114201;28;20555;-62
2022/12/25 09:16:39;;;;;;;7.90;7.70;;;22.20;71.80;;;;;;5113641;28;20445;-62
2022/12/25 09:19:06;;;;;;;8.30;8.00;;;22.20;71.80;;;;;;5113678;28;20457;-62
2022/12/25 09:21:36;;;;;;;7.70;7.50;;;22.20;71.90;;;;;;5113966;28;20577;-62
2022/12/25 09:24:03;;;;;;;8.00;7.60;;;22.20;71.80;;;;;;5114067;28;20441;-62
2022/12/25 09:26:30;;;;;;;7.90;7.63;;;22.20;71.70;;;;;;5113957;28;20452;-62
2022/12/25 09:28:57;;;;;;;7.73;7.53;;;22.20;71.60;;;;;;5113709;28;20448;-61
2022/12/25 09:31:23;;;;;;;7.50;7.30;;;22.20;71.60;;;;;;5113460;28;20516;-62
2022/12/25 09:33:51;;;;;;;7.90;7.70;;;22.20;71.60;;;;;;5116532;27;20533;-61
2022/12/25 09:36:20;;;;;;;7.83;7.63;;;22.20;71.60;;;;;;5113371;28;20528;-62
2022/12/25 09:38:48;;;;;;;7.93;7.70;;;22.20;71.60;;;;;;5112819;28;20816;-62
2022/12/25 09:41:19;;;;;;;7.90;7.80;;;22.20;71.70;;;;;;5113471;28;20568;-62
2022/12/25 09:43:49;;;;;;;8.20;8.00;;;22.20;71.60;;;;;;5112728;28;20438;-59
2022/12/25 09:46:21;;;;;;;8.33;8.13;;;22.20;71.70;;;;;;5113550;28;20532;-62
2022/12/25 09:48:57;;;;;;;7.67;7.53;;;22.20;71.70;;;;;;5113441;28;20469;-62
2022/12/25 09:51:27;;;;;;;8.00;7.80;;;22.20;71.70;;;;;;5113209;28;20884;-62
2022/12/25 09:54:01;;;;;;;7.97;7.77;;;22.20;71.80;;;;;;5113471;28;20450;-62
2022/12/25 09:56:28;;;;;;;8.13;7.83;;;22.20;71.80;;;;;;5127502;27;20436;-62
2022/12/25 09:58:55;;;;;;;8.03;7.83;;;22.20;71.90;;;;;;5133781;27;20475;-61
2022/12/25 10:01:31;;;;;;;8.03;7.83;;;22.20;72.00;;;;;;5133769;27;20564;-62
2022/12/25 10:04:25;;;;;;;7.93;7.73;;;22.20;72.20;;;;;;5133744;27;20455;-62
2022/12/25 10:07:07;;;;;;;8.10;7.90;;;22.20;72.10;;;;;;5126769;27;20857;-63
2022/12/25 10:09:56;;;;;;;7.50;7.30;;;22.30;72.20;;;;;;5112795;28;20452;-62
2022/12/25 10:12:36;;;;;;;7.80;7.63;;;22.20;72.10;;;;;;5113154;28;20457;-63
2022/12/25 10:15:21;;;;;;;7.60;7.40;;;22.20;72.10;;;;;;5113123;28;20441;-62
2022/12/25 10:18:11;;;;;;;7.33;7.13;;;22.20;72.10;;;;;;5112995;28;20965;-63
2022/12/25 10:20:46;;;;;;;7.87;7.57;;;22.20;72.10;;;;;;5112458;28;20484;-62
2022/12/25 10:23:17;;;;;;;7.83;7.53;;;22.20;72.20;;;;;;5112618;28;20472;-62
2022/12/25 10:25:47;;;;;;;7.80;7.60;;;22.20;72.10;;;;;;5112916;28;20446;-62
2022/12/25 10:28:19;;;;;;;7.90;7.70;;;22.20;72.10;;;;;;5112858;28;20509;-62
2022/12/25 10:30:46;;;;;;;8.43;8.20;;;22.20;72.10;;;;;;5112444;28;20525;-62
2022/12/25 10:33:14;;;;;;;8.00;7.80;;;22.20;72.20;;;;;;5112523;28;20975;-61
2022/12/25 10:35:42;;;;;;;8.10;7.90;;;22.20;72.20;;;;;;5112608;28;20499;-62
2022/12/25 10:38:13;;;;;;;8.00;7.80;;;22.20;72.20;;;;;;5112382;28;20480;-62
2022/12/25 10:40:55;;;;;;;8.00;7.80;;;22.20;72.20;;;;;;5111676;28;20504;-62
2022/12/25 10:43:25;;;;;;;8.17;7.97;;;22.20;72.20;;;;;;5112542;28;20982;-62
2022/12/25 10:45:52;;;;;;;7.63;7.50;;;22.20;72.20;;;;;;5112548;28;20437;-63
2022/12/25 10:48:27;;;;;;;8.07;7.87;;;22.20;72.20;;;;;;5112263;28;20445;-56
2022/12/25 10:50:54;;;;;;;7.77;7.57;;;22.30;72.20;;;;;;5112142;28;20440;-52
2022/12/25 10:53:23;;;;;;;8.10;7.90;;;22.40;74.80;;;;;;5112200;28;20465;-62
2022/12/25 10:56:02;;;;;;;7.70;7.40;;;22.60;80.90;;;;;;5112494;28;20456;-58
2022/12/25 10:58:30;;;;;;;8.10;7.70;;;22.70;76.60;;;;;;5112797;28;20459;-52
2022/12/25 11:01:00;;;;;;;7.97;7.77;;;22.70;74.50;;;;;;5112506;28;20503;-53
2022/12/25 11:03:30;;;;;;;7.63;7.43;;;22.80;73.70;;;;;;5113056;28;20461;-53
2022/12/25 11:05:57;;;;;;;7.83;7.63;;;22.90;72.70;;;;;;5112853;28;20441;-53
2022/12/25 11:08:27;;;;;;;8.70;8.43;;;22.90;72.00;;;;;;5111882;28;20446;-59
2022/12/25 11:10:56;;;;;;;8.30;8.10;;;23.00;72.70;;;;;;5112237;28;20437;-60
2022/12/25 11:13:27;;;;;;;8.50;8.27;;;23.10;72.50;;;;;;5112176;28;20453;-63
2022/12/25 11:16:09;;;;;;;8.33;8.13;;;23.10;72.80;;;;;;5112151;28;20456;-57
2022/12/25 11:18:45;;;;;;;8.33;8.13;;;23.10;71.60;;;;;;5111281;28;20515;-55
2022/12/25 11:21:18;;;;;;;8.10;7.90;;;23.10;71.50;;;;;;5112458;28;20487;-55
2022/12/25 11:23:47;;;;;;;8.03;7.83;;;23.20;71.20;;;;;;5113100;28;20537;-56
2022/12/25 11:26:15;;;;;;;8.20;7.80;;;23.20;70.70;;;;;;5113097;28;20442;-56
2022/12/25 11:28:45;;;;;;;8.73;8.43;;;23.30;70.50;;;;;;5112773;28;20533;-58
2022/12/25 11:31:15;;;;;;;7.80;7.60;;;23.30;71.20;;;;;;5112593;28;20447;-56
2022/12/25 11:33:46;;;;;;;7.70;7.50;;;23.30;70.00;;;;;;5112412;28;20448;-57
2022/12/25 11:36:21;;;;;;;7.60;7.50;;;23.40;69.80;;;;;;5112345;28;20441;-58
2022/12/25 11:38:48;;;;;;;8.27;8.07;;;23.40;69.70;;;;;;5112370;28;20459;-59
2022/12/25 11:41:19;;;;;;;8.50;8.30;;;23.40;69.70;;;;;;5112153;28;20485;-59
2022/12/25 11:43:52;;;;;;;7.80;7.60;;;23.50;69.30;;;;;;5112539;28;20939;-54
2022/12/25 11:46:24;;;;;;;7.80;7.60;;;23.50;69.20;;;;;;5112295;28;20445;-55
2022/12/25 11:48:55;;;;;;;8.10;7.80;;;23.50;69.30;;;;;;5111630;28;20980;-54
2022/12/25 11:51:24;;;;;;;8.00;7.80;;;23.50;68.60;;;;;;5112191;28;20441;-56
2022/12/25 11:53:53;;;;;;;8.00;7.80;;;23.50;68.40;;;;;;5112147;28;20517;-59
2022/12/25 11:56:24;;;;;;;8.90;8.60;;;23.50;68.30;;;;;;5111705;28;20442;-53
2022/12/25 11:58:54;;;;;;;8.23;8.03;;;23.50;68.10;;;;;;5111989;28;20441;-61
2022/12/25 12:01:31;;;;;;;8.60;8.40;;;23.50;67.90;;;;;;5112599;28;20481;-54
2022/12/25 12:04:00;;;;;;;7.97;7.70;;;23.60;67.90;;;;;;5112193;28;20524;-59
2022/12/25 12:06:32;;;;;;;7.77;7.57;;;23.60;67.90;;;;;;5113846;28;20453;-60
2022/12/25 12:09:11;;;;;;;8.23;7.80;;;23.60;68.00;;;;;;5116029;28;20514;-62
2022/12/25 12:11:45;;;;;;;8.60;8.40;;;23.70;68.90;;;;;;5115963;28;20468;-60
2022/12/25 12:14:24;;;;;;;8.20;7.80;;;23.70;68.10;;;;;;5115966;28;20476;-63
2022/12/25 12:16:51;;;;;;;8.70;8.40;;;23.60;67.70;;;;;;5115803;28;20448;-62
2022/12/25 12:19:26;;;;;;;7.50;7.40;;;23.60;67.30;;;;;;5115429;28;20453;-57
2022/12/25 12:21:55;;;;;;;7.73;7.40;;;23.60;67.30;;;;;;5115466;28;20575;-57
2022/12/25 12:24:25;;;;;;;7.80;7.60;;;23.60;67.80;;;;;;5115790;28;20813;-55
2022/12/25 12:27:03;;;;;;;7.57;7.37;;;23.60;67.10;;;;;;5115480;28;20448;-61
2022/12/25 12:29:43;;;;;;;7.63;7.43;;;23.50;66.80;;;;;;5114829;28;20528;-62
2022/12/25 12:32:36;;;;;;;8.20;8.00;;;23.60;67.10;;;;;;5095087;28;20458;-61
2022/12/25 12:35:12;;;;;;;7.10;6.90;;;23.60;67.20;;;;;;5094477;28;20447;-63
2022/12/25 12:37:41;;;;;;;6.30;6.20;;;23.60;67.20;;;;;;5093911;28;20479;-60
2022/12/25 12:40:21;;;;;;;7.60;7.40;;;23.70;68.00;;;;;;5112362;28;20206;-61
2022/12/25 12:42:49;;;;;;;8.07;7.70;;;23.80;66.20;;;;;;5115110;28;20473;-60
2022/12/25 12:45:20;;;;;;;8.13;7.83;;;23.80;65.60;;;;;;5114970;28;20446;-60
2022/12/25 12:47:49;;;;;;;8.00;7.80;;;23.90;66.10;;;;;;5115128;28;20481;-60
2022/12/25 12:50:38;;;;;;;8.87;8.57;;;23.90;66.30;;;;;;5114739;28;20946;-61
2022/12/25 12:53:28;;;;;;;7.97;7.77;;;23.80;66.80;;;;;;5114574;28;20461;-62
2022/12/25 12:55:55;;;;;;;7.80;7.60;;;23.90;66.70;;;;;;5114895;28;20935;-60
2022/12/25 12:58:31;;;;;;;7.50;7.20;;;23.90;66.60;;;;;;5115093;28;20448;-60
2022/12/25 13:01:08;;;;;;;7.90;7.70;;;23.90;66.50;;;;;;5114253;28;20967;-61
2022/12/25 13:03:46;;;;;;;8.30;8.10;;;23.90;66.60;;;;;;5114804;28;21002;-61
2022/12/25 13:06:17;;;;;;;8.40;8.00;;;23.90;66.70;;;;;;5114513;28;20441;-62
2022/12/25 13:08:58;;;;;;;8.30;8.00;;;23.90;69.30;;;;;;5113910;28;20452;-58
2022/12/25 13:11:28;;;;;;;8.63;8.03;;;23.90;72.10;;;;;;5114359;28;20460;-60
2022/12/25 13:13:57;;;;;;;8.37;8.13;;;23.90;70.90;;;;;;5113882;28;20445;-60
2022/12/25 13:16:30;;;;;;;7.50;7.30;;;23.90;70.30;;;;;;5114738;28;20441;-62
2022/12/25 13:18:58;;;;;;;7.70;7.40;;;23.90;68.90;;;;;;5114499;28;20453;-63
2022/12/25 13:21:27;;;;;;;8.87;8.37;;;24.00;68.60;;;;;;5114219;28;20485;-62
2022/12/25 13:23:58;;;;;;;8.73;8.37;;;23.90;68.90;;;;;;5114239;28;20523;-54
2022/12/25 13:26:25;;;;;;;8.70;8.37;;;23.90;69.00;;;;;;5093939;28;20541;-56
2022/12/25 13:28:54;;;;;;;8.70;8.50;;;23.90;69.50;;;;;;5093572;28;20450;-62
2022/12/25 13:31:23;;;;;;;9.17;8.87;;;23.90;69.80;;;;;;5093403;28;20860;-62
2022/12/25 13:33:57;;;;;;;8.40;8.00;;;23.90;69.80;;;;;;5094295;28;20447;-64
2022/12/25 13:36:25;;;;;;;7.80;7.60;;;23.90;70.10;;;;;;5093554;28;20442;-63
2022/12/25 13:38:56;;;;;;;9.17;8.67;;;23.90;70.60;;;;;;5093513;28;21069;-61
2022/12/25 13:44:18;;;;;;;8.33;8.13;;;24.00;72.50;;;;;;5114099;28;20574;-66
2022/12/25 13:46:44;;;;;;;8.43;8.10;;;24.10;71.30;;;;;;5113897;28;20441;-65
2022/12/25 13:49:16;;;;;;;8.20;8.00;;;24.10;71.30;;;;;;5113704;28;20532;-64
2022/12/25 13:51:44;;;;;;;8.70;8.40;;;24.00;70.50;;;;;;5114559;28;20475;-64
2022/12/25 13:54:12;;;;;;;7.70;7.50;;;24.10;70.70;;;;;;5113672;28;20441;-65
2022/12/25 13:56:47;;;;;;;8.30;8.00;;;24.10;70.70;;;;;;5093262;28;20528;-65
2022/12/25 13:59:17;;;;;;;8.30;8.10;;;24.10;70.40;;;;;;5093095;28;20448;-64
2022/12/25 14:01:45;;;;;;;9.10;8.80;;;24.20;70.70;;;;;;5092922;28;20488;-64
2022/12/25 14:04:17;;;;;;;9.57;9.27;;;24.20;71.00;;;;;;5107097;28;20465;-65
2022/12/25 14:06:44;;;;;;;10.10;9.60;;;24.20;70.70;;;;;;5113472;28;20434;-66
2022/12/25 14:09:13;;;;;;;9.50;9.30;;;24.20;70.30;;;;;;5113134;27;20449;-66
2022/12/25 14:11:44;;;;;;;10.13;9.83;;;24.20;70.20;;;;;;5112852;28;20462;-66
2022/12/25 14:14:17;;;;;;;9.47;9.17;;;24.20;70.30;;;;;;5113692;28;20441;-63
2022/12/25 14:16:47;;;;;;;9.03;8.73;;;24.20;71.00;;;;;;5113328;28;20441;-63
2022/12/25 14:19:26;;;;;;;9.13;8.93;;;24.20;71.80;;;;;;5114049;28;20494;-59
2022/12/25 14:21:57;;;;;;;9.40;9.10;;;24.30;71.10;;;;;;5113504;28;20491;-62
2022/12/25 14:24:26;;;;;;;9.30;9.00;;;24.30;71.30;;;;;;5113039;28;20446;-63
2022/12/25 14:27:01;;;;;;;9.50;9.00;;;24.30;70.50;;;;;;5112748;28;20536;-64
2022/12/25 14:29:34;;;;;;;9.17;8.67;;;24.30;71.10;;;;;;5112283;28;20438;-64
2022/12/25 14:32:05;;;;;;;8.70;8.50;;;24.30;70.70;;;;;;5112847;28;20464;-64
2022/12/25 14:34:34;;;;;;;9.50;9.20;;;24.30;70.90;;;;;;5112743;28;20461;-63
2022/12/25 14:37:03;;;;;;;9.20;8.90;;;24.30;70.50;;;;;;5112748;28;20446;-63
2022/12/25 14:39:36;;;;;;;9.60;9.30;;;24.30;70.60;;;;;;5112841;28;20445;-62
2022/12/25 14:42:12;;;;;;;9.27;8.97;;;24.30;71.00;;;;;;5112883;28;20484;-63
2022/12/25 14:44:40;;;;;;;9.10;8.90;;;24.30;70.10;;;;;;5112222;28;20942;-61
2022/12/25 14:47:16;;;;;;;9.33;9.00;;;24.30;70.20;;;;;;5112926;28;20481;-62